createdAt,value
2022-09-14T00:04:46.895Z,99149.28
2022-09-14T00:09:49.728Z,99144.00
2022-09-14T00:14:53.683Z,99144.88
2022-09-14T00:19:56.288Z,99148.47
2022-09-14T00:24:58.912Z,99144.09
2022-09-14T00:30:02.934Z,99133.44
2022-09-14T00:35:06.827Z,99119.22
2022-09-14T00:40:12.330Z,99114.84
2022-09-14T00:45:18.478Z,99101.50
2022-09-14T00:50:21.415Z,99096.13
2022-09-14T00:55:24.815Z,99080.22
2022-09-14T01:00:30.875Z,99081.97
2022-09-14T01:05:43.645Z,99075.84
2022-09-14T01:10:57.906Z,99051.00
2022-09-14T01:16:08.362Z,99034.13
2022-09-14T01:21:12.216Z,99051.84
2022-09-14T01:27:06.102Z,99046.56
2022-09-14T01:32:13.903Z,99056.34
2022-09-14T01:37:20.790Z,99048.34
2022-09-14T01:42:27.138Z,99040.44
2022-09-14T01:47:32.777Z,99020.91
2022-09-14T01:52:41.436Z,99045.72
2022-09-14T01:57:49.687Z,99026.22
2022-09-14T02:02:55.791Z,99028.88
2022-09-14T02:07:58.686Z,99004.97
2022-09-14T02:13:02.693Z,99010.28
2022-09-14T02:18:06.786Z,98997.06
2022-09-14T02:23:09.418Z,98989.00
2022-09-14T02:28:13.409Z,98973.22
2022-09-14T02:33:19.845Z,98947.34
2022-09-14T02:38:24.870Z,98949.19
2022-09-14T02:43:38.522Z,98928.81
2022-09-14T02:48:45.237Z,98912.06
2022-09-14T02:53:52.759Z,98901.38
2022-09-14T02:58:57.159Z,98890.72
2022-09-14T03:03:59.795Z,98892.47
2022-09-14T03:09:02.544Z,98883.66
2022-09-14T03:14:06.930Z,98870.34
2022-09-14T03:19:10.695Z,98878.38
2022-09-14T03:24:13.345Z,98858.91
2022-09-14T03:29:17.300Z,98883.72
2022-09-14T03:34:19.909Z,98858.91
2022-09-14T03:39:22.643Z,98858.91
2022-09-14T03:44:26.623Z,98843.88
2022-09-14T03:49:29.229Z,98789.00
2022-09-14T03:54:32.521Z,98790.75
2022-09-14T03:59:40.485Z,98750.94
2022-09-14T04:04:48.166Z,98730.63
2022-09-14T04:09:50.770Z,98701.47
2022-09-14T04:14:54.772Z,98694.28
2022-09-14T04:19:57.386Z,98658.91
2022-09-14T04:24:59.999Z,98624.63
2022-09-14T04:30:04.215Z,98575.88
2022-09-14T04:35:07.037Z,98544.16
2022-09-14T04:40:10.827Z,98532.75
2022-09-14T04:45:14.970Z,98479.38
2022-09-14T04:50:17.740Z,98465.31
2022-09-14T04:55:20.323Z,98446.16
2022-09-14T05:00:24.324Z,98418.63
2022-09-14T05:05:26.933Z,98389.31
2022-09-14T05:10:29.530Z,98375.13
2022-09-14T05:15:33.512Z,98370.00
2022-09-14T05:20:36.741Z,98373.59
2022-09-14T05:25:40.552Z,98350.53
2022-09-14T05:30:44.530Z,98339.28
2022-09-14T05:35:47.679Z,98283.44
2022-09-14T05:40:55.009Z,98242.81
2022-09-14T05:46:02.336Z,98214.47
2022-09-14T05:51:07.271Z,98172.94
2022-09-14T05:56:12.303Z,98126.16
2022-09-14T06:01:18.061Z,98075.19
2022-09-14T06:06:21.374Z,97994.97
2022-09-14T06:11:25.689Z,97911.91
2022-09-14T06:16:30.215Z,97856.88
2022-09-14T06:21:34.407Z,97785.94
2022-09-14T06:26:37.092Z,97726.94
2022-09-14T06:31:41.040Z,97669.28
2022-09-14T06:36:44.757Z,97613.44
2022-09-14T06:41:47.369Z,97590.56
2022-09-14T06:46:56.501Z,97539.06
2022-09-14T06:52:00.719Z,97492.16
2022-09-14T06:57:03.557Z,97470.31
2022-09-14T07:02:07.604Z,97451.19
2022-09-14T07:07:10.226Z,97365.88
2022-09-14T07:12:12.834Z,97336.66
2022-09-14T07:17:16.861Z,97304.94
2022-09-14T07:22:19.533Z,97240.00
2022-09-14T07:27:22.124Z,97184.50
2022-09-14T07:32:26.164Z,97085.50
2022-09-14T07:37:30.345Z,97073.47
2022-09-14T07:42:33.520Z,97002.72
2022-09-14T07:47:37.464Z,96977.09
2022-09-14T07:52:40.117Z,96976.81
2022-09-14T07:57:55.745Z,96955.88
2022-09-14T08:03:00.744Z,96879.41
2022-09-14T08:08:03.789Z,96808.31
2022-09-14T08:13:06.352Z,96827.25
2022-09-14T08:18:11.348Z,96862.84
2022-09-14T08:23:13.907Z,96824.13
2022-09-14T08:28:16.500Z,96840.41
2022-09-14T08:33:20.433Z,96764.31
2022-09-14T08:38:23.225Z,96827.88
2022-09-14T08:43:27.147Z,96657.53
2022-09-14T08:48:36.588Z,96772.34
2022-09-14T08:53:40.785Z,96713.03
2022-09-14T08:59:05.652Z,96664.50
2022-09-14T09:04:24.328Z,96650.00
2022-09-14T09:09:32.401Z,96664.44
2022-09-14T09:14:37.073Z,96669.56
2022-09-14T09:19:45.537Z,96681.97
2022-09-14T09:24:51.552Z,96693.16
2022-09-14T09:35:47.060Z,96680.56
2022-09-14T09:40:56.161Z,96696.19
2022-09-14T09:46:00.933Z,96702.31
2022-09-14T09:51:10.706Z,96701.38
2022-09-14T09:56:18.977Z,96640.31
2022-09-14T10:01:24.088Z,96657.75
2022-09-14T10:06:28.330Z,96637.03
2022-09-14T10:11:38.178Z,96641.34
2022-09-14T10:16:42.071Z,96643.53
2022-09-14T10:22:18.640Z,96590.63
2022-09-14T10:27:46.522Z,96542.25
2022-09-14T10:32:54.982Z,96504.47
2022-09-14T10:38:08.445Z,96475.78
2022-09-14T10:43:14.919Z,96421.84
2022-09-14T10:48:37.719Z,96374.84
2022-09-14T10:53:51.828Z,96323.94
2022-09-14T10:59:13.471Z,96225.88
2022-09-14T11:04:25.563Z,96271.91
2022-09-14T11:09:33.674Z,96252.69
2022-09-14T11:14:45.659Z,96193.31
2022-09-14T11:19:55.060Z,96149.72
2022-09-14T11:25:00.885Z,96145.72
2022-09-14T11:30:07.383Z,96093.53
2022-09-14T11:35:16.301Z,96087.66
2022-09-14T11:40:24.107Z,96078.91
2022-09-14T11:45:29.857Z,96066.66
2022-09-14T11:50:33.501Z,96013.66
2022-09-14T11:55:41.531Z,96033.91
2022-09-14T12:01:01.470Z,95998.13
2022-09-14T12:06:43.921Z,95971.97
2022-09-14T12:11:49.271Z,95931.69
2022-09-14T12:17:38.964Z,95925.81
2022-09-14T12:22:39.411Z,95923.09
2022-09-14T12:27:44.615Z,95909.16
2022-09-14T12:32:47.364Z,95912.75
2022-09-14T12:37:50.403Z,95914.66
2022-09-14T12:42:54.708Z,95884.47
2022-09-14T12:47:57.361Z,95891.38
2022-09-14T12:53:18.164Z,95914.72
2022-09-14T12:58:55.922Z,95848.00
2022-09-14T13:03:58.914Z,95841.75
2022-09-14T13:09:06.261Z,95831.63
2022-09-14T13:14:17.615Z,95851.72
2022-09-14T13:19:27.238Z,95885.66
2022-09-14T13:30:01.265Z,95831.44
2022-09-14T13:35:06.095Z,95801.47
2022-09-14T13:40:09.732Z,95818.13
2022-09-14T13:45:15.396Z,95818.97
2022-09-14T13:50:18.870Z,95799.75
2022-09-14T13:55:24.905Z,95779.78
2022-09-14T14:00:28.885Z,95757.16
2022-09-14T14:05:32.793Z,95766.28
2022-09-14T14:10:38.605Z,95798.66
2022-09-14T14:15:44.020Z,95780.88
2022-09-14T14:20:46.621Z,95784.34
2022-09-14T14:25:51.915Z,95757.25
2022-09-14T14:30:58.799Z,95748.44
2022-09-14T14:47:41.506Z,95874.34
2022-09-14T14:52:44.160Z,95908.78
2022-09-14T14:57:46.853Z,95819.03
2022-09-14T15:02:58.445Z,95886.97
2022-09-14T15:08:01.421Z,95865.63
2022-09-14T15:13:06.323Z,95880.53
2022-09-14T15:18:10.397Z,95865.41
2022-09-14T15:23:14.073Z,95847.75
2022-09-14T15:28:16.697Z,95845.00
2022-09-14T15:33:20.887Z,95838.78
2022-09-14T15:38:23.576Z,95839.31
2022-09-14T15:43:26.299Z,95858.03
2022-09-14T15:48:30.269Z,95873.25
2022-09-14T15:53:32.835Z,95850.00
2022-09-14T15:58:35.455Z,95841.72
2022-09-14T16:03:40.136Z,95767.63
2022-09-14T16:08:42.813Z,95891.00
2022-09-14T16:13:45.371Z,95835.03
2022-09-14T16:18:50.797Z,95837.59
2022-09-14T16:23:55.815Z,95899.78
2022-09-14T16:28:59.223Z,95606.44
2022-09-14T16:34:06.233Z,95775.97
2022-09-14T16:39:12.176Z,95787.75
2022-09-14T16:44:16.512Z,95753.78
2022-09-14T16:49:25.005Z,95777.44
2022-09-14T16:54:31.667Z,95754.38
2022-09-14T16:59:36.717Z,95747.38
2022-09-14T17:04:40.636Z,95738.63
2022-09-14T17:09:43.278Z,95709.88
2022-09-14T17:14:48.006Z,95737.22
2022-09-14T17:19:52.028Z,95692.19
2022-09-14T17:24:54.653Z,95679.38
2022-09-14T17:29:57.249Z,95656.81
2022-09-14T17:35:01.792Z,95622.81
2022-09-14T17:40:06.350Z,95608.97
2022-09-14T17:45:10.499Z,95557.00
2022-09-14T17:50:16.713Z,95562.06
2022-09-14T17:55:19.341Z,95485.19
2022-09-14T18:00:22.161Z,95397.69
2022-09-14T18:05:26.889Z,95345.38
2022-09-14T18:10:29.490Z,95285.22
2022-09-14T18:15:34.950Z,95223.56
2022-09-14T18:20:41.021Z,95176.22
2022-09-14T18:25:43.907Z,95181.06
2022-09-14T18:30:46.701Z,95131.88
2022-09-14T18:35:53.817Z,95096.00
2022-09-14T18:40:56.783Z,95086.78
2022-09-14T18:45:59.516Z,95059.13
2022-09-14T18:51:04.954Z,95058.72
2022-09-14T18:56:09.776Z,95077.94
2022-09-14T19:01:13.194Z,94855.81
2022-09-14T19:06:18.900Z,95021.31
2022-09-14T19:11:22.709Z,95053.56
2022-09-14T19:16:25.557Z,95043.16
2022-09-14T19:21:31.175Z,94813.09
2022-09-14T19:26:36.960Z,94720.03
2022-09-14T19:31:42.095Z,94938.41
2022-09-14T19:36:46.398Z,94996.94
2022-09-14T19:41:49.106Z,94948.06
2022-09-14T19:46:52.278Z,94920.63
2022-09-14T19:51:56.553Z,94950.16
2022-09-14T19:56:59.219Z,94971.97
2022-09-14T20:02:01.892Z,94996.25
2022-09-14T20:07:07.449Z,94994.78
2022-09-14T20:12:10.132Z,94977.72
2022-09-14T20:17:12.704Z,94959.38
2022-09-14T20:22:17.058Z,94993.19
2022-09-14T20:27:19.666Z,94912.47
2022-09-14T20:32:22.269Z,94975.78
2022-09-14T20:37:27.276Z,94979.53
2022-09-14T20:42:30.320Z,94962.16
2022-09-14T20:47:33.031Z,94971.53
2022-09-14T20:52:37.191Z,94980.59
2022-09-14T20:57:39.817Z,94966.63
2022-09-14T21:02:42.433Z,94940.38
2022-09-14T21:07:55.979Z,94923.31
2022-09-14T21:12:58.915Z,94929.78
2022-09-14T21:18:01.706Z,94943.06
2022-09-14T21:23:06.002Z,94960.13
2022-09-14T21:28:08.565Z,94936.06
2022-09-14T21:33:11.121Z,94943.56
2022-09-14T21:38:15.094Z,94950.41
2022-09-14T21:43:17.703Z,94960.81
2022-09-14T21:48:20.445Z,94947.16
2022-09-14T21:53:24.734Z,94934.38
2022-09-14T21:58:27.298Z,94923.66
2022-09-14T22:03:30.432Z,94886.66
2022-09-14T22:08:35.534Z,94883.09
2022-09-14T22:13:38.415Z,94754.44
2022-09-14T22:18:43.373Z,94903.00
2022-09-14T22:23:51.987Z,94949.63
2022-09-14T22:28:56.064Z,94918.38
2022-09-14T22:33:59.174Z,94574.38
2022-09-14T22:39:03.695Z,94873.69
2022-09-14T22:44:07.133Z,94816.13
2022-09-14T22:49:09.987Z,94735.19
2022-09-14T22:54:13.973Z,94807.06
2022-09-14T22:59:16.616Z,94779.72
2022-09-14T23:04:19.281Z,94776.91
2022-09-14T23:09:23.316Z,94702.28
2022-09-14T23:14:26.271Z,94775.22
2022-09-14T23:19:29.944Z,94757.63
2022-09-14T23:24:33.973Z,94790.78
2022-09-14T23:29:36.643Z,94774.56
2022-09-14T23:34:39.247Z,94818.19
2022-09-14T23:39:43.227Z,94706.94
2022-09-14T23:44:45.818Z,94573.13
2022-09-14T23:49:48.431Z,94619.63
2022-09-14T23:54:52.390Z,94640.19
2022-09-14T23:59:55.002Z,94667.72
